sensor_id;sensor_type;location;lat;lon;timestamp;P1;durP1;ratioP1;P2;durP2;ratioP2
23302;SDS011;11820;48.738;9.092;2023-01-13T00:01:22;1.27;;;0.60;;
23302;SDS011;11820;48.738;9.092;2023-01-13T00:03:49;2.70;;;0.87;;
23302;SDS011;11820;48.738;9.092;2023-01-13T00:06:19;2.10;;;0.70;;
23302;SDS011;11820;48.738;9.092;2023-01-13T00:08:49;1.83;;;0.87;;
23302;SDS011;11820;48.738;9.092;2023-01-13T00:11:16;1.40;;;0.67;;
23302;SDS011;11820;48.738;9.092;2023-01-13T00:13:42;1.63;;;0.60;;
23302;SDS011;11820;48.738;9.092;2023-01-13T00:16:11;5.03;;;0.80;;
23302;SDS011;11820;48.738;9.092;2023-01-13T00:18:39;1.37;;;0.80;;
23302;SDS011;11820;48.738;9.092;2023-01-13T00:21:12;4.77;;;0.70;;
23302;SDS011;11820;48.738;9.092;2023-01-13T00:23:40;1.87;;;0.60;;
23302;SDS011;11820;48.738;9.092;2023-01-13T00:26:07;2.93;;;1.00;;
23302;SDS011;11820;48.738;9.092;2023-01-13T00:28:34;1.30;;;0.53;;
23302;SDS011;11820;48.738;9.092;2023-01-13T00:31:08;1.73;;;0.70;;
23302;SDS011;11820;48.738;9.092;2023-01-13T00:33:41;2.23;;;0.83;;
23302;SDS011;11820;48.738;9.092;2023-01-13T00:36:07;4.00;;;0.60;;
23302;SDS011;11820;48.738;9.092;2023-01-13T00:38:35;2.53;;;0.50;;
23302;SDS011;11820;48.738;9.092;2023-01-13T00:41:06;3.33;;;0.80;;
23302;SDS011;11820;48.738;9.092;2023-01-13T00:43:34;2.13;;;0.90;;
23302;SDS011;11820;48.738;9.092;2023-01-13T00:46:00;1.77;;;0.70;;
23302;SDS011;11820;48.738;9.092;2023-01-13T00:48:27;2.37;;;0.60;;
23302;SDS011;11820;48.738;9.092;2023-01-13T00:50:57;3.77;;;0.93;;
23302;SDS011;11820;48.738;9.092;2023-01-13T00:53:24;0.93;;;0.70;;
23302;SDS011;11820;48.738;9.092;2023-01-13T00:55:57;3.10;;;0.87;;
23302;SDS011;11820;48.738;9.092;2023-01-13T00:58:26;1.07;;;0.70;;
23302;SDS011;11820;48.738;9.092;2023-01-13T01:00:52;1.10;;;0.63;;
23302;SDS011;11820;48.738;9.092;2023-01-13T01:03:17;1.87;;;0.67;;
23302;SDS011;11820;48.738;9.092;2023-01-13T01:05:43;2.03;;;0.80;;
23302;SDS011;11820;48.738;9.092;2023-01-13T01:08:08;0.90;;;0.50;;
23302;SDS011;11820;48.738;9.092;2023-01-13T01:10:33;0.67;;;0.47;;
23302;SDS011;11820;48.738;9.092;2023-01-13T01:12:59;1.23;;;0.73;;
23302;SDS011;11820;48.738;9.092;2023-01-13T01:15:24;3.30;;;1.03;;
23302;SDS011;11820;48.738;9.092;2023-01-13T01:17:50;2.73;;;1.07;;
23302;SDS011;11820;48.738;9.092;2023-01-13T01:20:15;1.40;;;0.53;;
23302;SDS011;11820;48.738;9.092;2023-01-13T01:22:41;1.53;;;0.50;;
23302;SDS011;11820;48.738;9.092;2023-01-13T01:25:06;1.43;;;0.67;;
23302;SDS011;11820;48.738;9.092;2023-01-13T01:27:32;2.10;;;0.60;;
23302;SDS011;11820;48.738;9.092;2023-01-13T01:29:57;2.07;;;0.57;;
23302;SDS011;11820;48.738;9.092;2023-01-13T01:32:23;0.70;;;0.63;;
23302;SDS011;11820;48.738;9.092;2023-01-13T01:34:49;0.83;;;0.60;;
23302;SDS011;11820;48.738;9.092;2023-01-13T01:37:14;1.50;;;0.70;;
23302;SDS011;11820;48.738;9.092;2023-01-13T01:39:40;1.63;;;0.67;;
23302;SDS011;11820;48.738;9.092;2023-01-13T01:42:05;4.70;;;0.80;;
23302;SDS011;11820;48.738;9.092;2023-01-13T01:47:24;2.30;;;0.50;;
23302;SDS011;11820;48.738;9.092;2023-01-13T01:49:51;1.03;;;0.60;;
23302;SDS011;11820;48.738;9.092;2023-01-13T01:52:19;0.77;;;0.60;;
23302;SDS011;11820;48.738;9.092;2023-01-13T01:54:54;1.27;;;0.67;;
23302;SDS011;11820;48.738;9.092;2023-01-13T01:58:01;1.03;;;0.60;;
23302;SDS011;11820;48.738;9.092;2023-01-13T02:00:27;1.80;;;0.53;;
23302;SDS011;11820;48.738;9.092;2023-01-13T02:02:53;1.30;;;0.50;;
23302;SDS011;11820;48.738;9.092;2023-01-13T02:05:20;4.73;;;0.70;;
23302;SDS011;11820;48.738;9.092;2023-01-13T02:07:46;2.50;;;0.80;;
23302;SDS011;11820;48.738;9.092;2023-01-13T02:10:15;1.77;;;0.67;;
23302;SDS011;11820;48.738;9.092;2023-01-13T02:12:43;2.73;;;0.60;;
23302;SDS011;11820;48.738;9.092;2023-01-13T02:15:10;1.00;;;0.50;;
23302;SDS011;11820;48.738;9.092;2023-01-13T02:23:32;2.13;;;0.73;;
23302;SDS011;11820;48.738;9.092;2023-01-13T02:38:06;3.03;;;0.80;;
23302;SDS011;11820;48.738;9.092;2023-01-13T02:40:39;1.27;;;0.60;;
23302;SDS011;11820;48.738;9.092;2023-01-13T02:43:11;4.23;;;0.80;;
23302;SDS011;11820;48.738;9.092;2023-01-13T02:48:33;2.63;;;0.50;;
23302;SDS011;11820;48.738;9.092;2023-01-13T02:51:04;1.47;;;0.60;;
23302;SDS011;11820;48.738;9.092;2023-01-13T02:54:08;2.87;;;0.80;;
23302;SDS011;11820;48.738;9.092;2023-01-13T02:56:39;3.13;;;0.70;;
23302;SDS011;11820;48.738;9.092;2023-01-13T02:59:07;4.37;;;1.03;;
23302;SDS011;11820;48.738;9.092;2023-01-13T03:01:34;0.77;;;0.70;;
23302;SDS011;11820;48.738;9.092;2023-01-13T03:04:09;2.53;;;0.80;;
23302;SDS011;11820;48.738;9.092;2023-01-13T03:09:27;1.87;;;0.80;;
23302;SDS011;11820;48.738;9.092;2023-01-13T03:17:36;0.77;;;0.40;;
23302;SDS011;11820;48.738;9.092;2023-01-13T03:20:17;1.37;;;0.40;;
23302;SDS011;11820;48.738;9.092;2023-01-13T03:23:01;1.90;;;0.60;;
23302;SDS011;11820;48.738;9.092;2023-01-13T03:25:33;0.80;;;0.50;;
23302;SDS011;11820;48.738;9.092;2023-01-13T03:28:05;1.83;;;0.57;;
23302;SDS011;11820;48.738;9.092;2023-01-13T03:30:36;2.40;;;0.70;;
23302;SDS011;11820;48.738;9.092;2023-01-13T03:33:10;3.23;;;1.00;;
23302;SDS011;11820;48.738;9.092;2023-01-13T03:35:42;0.97;;;0.53;;
23302;SDS011;11820;48.738;9.092;2023-01-13T03:38:17;1.03;;;0.60;;
23302;SDS011;11820;48.738;9.092;2023-01-13T03:40:50;2.17;;;0.50;;
23302;SDS011;11820;48.738;9.092;2023-01-13T03:49:36;0.97;;;0.77;;
23302;SDS011;11820;48.738;9.092;2023-01-13T03:52:07;2.20;;;0.60;;
23302;SDS011;11820;48.738;9.092;2023-01-13T03:54:45;2.00;;;0.93;;
23302;SDS011;11820;48.738;9.092;2023-01-13T03:57:15;2.40;;;0.70;;
23302;SDS011;11820;48.738;9.092;2023-01-13T03:59:46;3.43;;;0.97;;
23302;SDS011;11820;48.738;9.092;2023-01-13T04:02:20;2.73;;;0.90;;
23302;SDS011;11820;48.738;9.092;2023-01-13T04:04:58;0.87;;;0.60;;
23302;SDS011;11820;48.738;9.092;2023-01-13T04:10:12;1.73;;;0.83;;
23302;SDS011;11820;48.738;9.092;2023-01-13T04:12:45;1.53;;;0.60;;
23302;SDS011;11820;48.738;9.092;2023-01-13T04:15:34;1.20;;;0.43;;
23302;SDS011;11820;48.738;9.092;2023-01-13T04:18:09;4.37;;;0.60;;
23302;SDS011;11820;48.738;9.092;2023-01-13T04:20:35;1.47;;;0.70;;
23302;SDS011;11820;48.738;9.092;2023-01-13T04:23:01;1.23;;;0.70;;
23302;SDS011;11820;48.738;9.092;2023-01-13T04:25:27;1.37;;;0.80;;
23302;SDS011;11820;48.738;9.092;2023-01-13T04:27:52;1.57;;;0.67;;
23302;SDS011;11820;48.738;9.092;2023-01-13T04:30:18;2.47;;;0.70;;
23302;SDS011;11820;48.738;9.092;2023-01-13T04:32:43;2.67;;;0.70;;
23302;SDS011;11820;48.738;9.092;2023-01-13T04:35:08;0.93;;;0.53;;
23302;SDS011;11820;48.738;9.092;2023-01-13T04:37:34;2.37;;;0.70;;
23302;SDS011;11820;48.738;9.092;2023-01-13T04:39:59;1.47;;;0.90;;
23302;SDS011;11820;48.738;9.092;2023-01-13T04:42:25;1.80;;;0.53;;
23302;SDS011;11820;48.738;9.092;2023-01-13T04:44:50;1.90;;;0.50;;
23302;SDS011;11820;48.738;9.092;2023-01-13T04:47:15;1.67;;;0.53;;
23302;SDS011;11820;48.738;9.092;2023-01-13T04:49:41;3.97;;;0.70;;
23302;SDS011;11820;48.738;9.092;2023-01-13T04:52:06;0.90;;;0.40;;
23302;SDS011;11820;48.738;9.092;2023-01-13T04:54:31;1.80;;;0.53;;
23302;SDS011;11820;48.738;9.092;2023-01-13T04:56:57;2.23;;;0.50;;
23302;SDS011;11820;48.738;9.092;2023-01-13T04:59:22;1.37;;;0.50;;
23302;SDS011;11820;48.738;9.092;2023-01-13T05:01:47;1.50;;;0.40;;
23302;SDS011;11820;48.738;9.092;2023-01-13T05:04:13;0.87;;;0.60;;
23302;SDS011;11820;48.738;9.092;2023-01-13T05:06:39;0.53;;;0.43;;
23302;SDS011;11820;48.738;9.092;2023-01-13T05:09:05;1.40;;;0.50;;
23302;SDS011;11820;48.738;9.092;2023-01-13T05:11:30;1.20;;;0.50;;
23302;SDS011;11820;48.738;9.092;2023-01-13T05:14:14;1.10;;;0.43;;
23302;SDS011;11820;48.738;9.092;2023-01-13T05:16:58;0.70;;;0.50;;
23302;SDS011;11820;48.738;9.092;2023-01-13T05:21:59;2.07;;;0.70;;
23302;SDS011;11820;48.738;9.092;2023-01-13T05:24:44;2.67;;;0.80;;
23302;SDS011;11820;48.738;9.092;2023-01-13T05:27:28;1.23;;;0.43;;
23302;SDS011;11820;48.738;9.092;2023-01-13T05:29:55;0.67;;;0.43;;
23302;SDS011;11820;48.738;9.092;2023-01-13T05:32:21;1.13;;;0.50;;
23302;SDS011;11820;48.738;9.092;2023-01-13T05:34:46;1.80;;;0.53;;
23302;SDS011;11820;48.738;9.092;2023-01-13T05:37:12;0.57;;;0.40;;
23302;SDS011;11820;48.738;9.092;2023-01-13T05:39:38;0.90;;;0.40;;
23302;SDS011;11820;48.738;9.092;2023-01-13T05:42:22;0.87;;;0.37;;
23302;SDS011;11820;48.738;9.092;2023-01-13T05:45:06;0.57;;;0.57;;
23302;SDS011;11820;48.738;9.092;2023-01-13T05:47:33;1.50;;;0.93;;
23302;SDS011;11820;48.738;9.092;2023-01-13T05:49:58;0.40;;;0.30;;
23302;SDS011;11820;48.738;9.092;2023-01-13T05:52:23;1.47;;;0.50;;
23302;SDS011;11820;48.738;9.092;2023-01-13T05:54:49;0.47;;;0.30;;
23302;SDS011;11820;48.738;9.092;2023-01-13T05:57:15;1.03;;;0.57;;
23302;SDS011;11820;48.738;9.092;2023-01-13T05:59:40;0.70;;;0.50;;
23302;SDS011;11820;48.738;9.092;2023-01-13T06:02:05;0.93;;;0.47;;
23302;SDS011;11820;48.738;9.092;2023-01-13T06:04:31;0.53;;;0.40;;
23302;SDS011;11820;48.738;9.092;2023-01-13T06:06:56;2.00;;;0.50;;
23302;SDS011;11820;48.738;9.092;2023-01-13T06:09:21;1.30;;;0.50;;
23302;SDS011;11820;48.738;9.092;2023-01-13T06:11:47;0.40;;;0.40;;
23302;SDS011;11820;48.738;9.092;2023-01-13T06:14:13;1.37;;;0.50;;
23302;SDS011;11820;48.738;9.092;2023-01-13T06:16:38;0.53;;;0.33;;
23302;SDS011;11820;48.738;9.092;2023-01-13T06:19:03;0.50;;;0.50;;
23302;SDS011;11820;48.738;9.092;2023-01-13T06:21:33;1.83;;;0.50;;
23302;SDS011;11820;48.738;9.092;2023-01-13T06:23:59;0.67;;;0.40;;
23302;SDS011;11820;48.738;9.092;2023-01-13T06:26:24;0.30;;;0.20;;
23302;SDS011;11820;48.738;9.092;2023-01-13T06:28:54;0.50;;;0.40;;
23302;SDS011;11820;48.738;9.092;2023-01-13T06:31:19;1.10;;;0.33;;
23302;SDS011;11820;48.738;9.092;2023-01-13T06:33:46;0.87;;;0.50;;
23302;SDS011;11820;48.738;9.092;2023-01-13T06:36:15;1.80;;;0.40;;
23302;SDS011;11820;48.738;9.092;2023-01-13T06:38:46;0.50;;;0.50;;
23302;SDS011;11820;48.738;9.092;2023-01-13T06:41:16;0.67;;;0.30;;
23302;SDS011;11820;48.738;9.092;2023-01-13T06:44:02;0.83;;;0.33;;
23302;SDS011;11820;48.738;9.092;2023-01-13T06:46:28;0.60;;;0.37;;
23302;SDS011;11820;48.738;9.092;2023-01-13T06:48:53;0.50;;;0.40;;
23302;SDS011;11820;48.738;9.092;2023-01-13T06:51:18;0.73;;;0.40;;
23302;SDS011;11820;48.738;9.092;2023-01-13T06:53:44;0.50;;;0.50;;
23302;SDS011;11820;48.738;9.092;2023-01-13T06:56:09;0.30;;;0.30;;
23302;SDS011;11820;48.738;9.092;2023-01-13T06:58:34;0.40;;;0.40;;
23302;SDS011;11820;48.738;9.092;2023-01-13T07:01:00;0.40;;;0.40;;
23302;SDS011;11820;48.738;9.092;2023-01-13T07:03:25;1.10;;;0.53;;
23302;SDS011;11820;48.738;9.092;2023-01-13T07:05:51;0.30;;;0.30;;
23302;SDS011;11820;48.738;9.092;2023-01-13T07:08:19;0.47;;;0.30;;
23302;SDS011;11820;48.738;9.092;2023-01-13T07:10:44;1.27;;;0.30;;
23302;SDS011;11820;48.738;9.092;2023-01-13T07:13:10;2.03;;;0.47;;
23302;SDS011;11820;48.738;9.092;2023-01-13T07:15:57;0.40;;;0.40;;
23302;SDS011;11820;48.738;9.092;2023-01-13T07:18:25;0.67;;;0.30;;
23302;SDS011;11820;48.738;9.092;2023-01-13T07:20:53;0.43;;;0.40;;
23302;SDS011;11820;48.738;9.092;2023-01-13T07:23:19;1.37;;;0.30;;
23302;SDS011;11820;48.738;9.092;2023-01-13T07:25:45;0.40;;;0.40;;
23302;SDS011;11820;48.738;9.092;2023-01-13T07:28:10;2.27;;;0.50;;
23302;SDS011;11820;48.738;9.092;2023-01-13T07:30:36;1.30;;;0.47;;
23302;SDS011;11820;48.738;9.092;2023-01-13T07:33:02;0.53;;;0.40;;
23302;SDS011;11820;48.738;9.092;2023-01-13T07:35:27;1.67;;;0.40;;
23302;SDS011;11820;48.738;9.092;2023-01-13T07:37:53;0.30;;;0.30;;
23302;SDS011;11820;48.738;9.092;2023-01-13T07:40:18;0.73;;;0.40;;
23302;SDS011;11820;48.738;9.092;2023-01-13T07:42:43;1.13;;;0.93;;
23302;SDS011;11820;48.738;9.092;2023-01-13T07:45:27;0.70;;;0.40;;
23302;SDS011;11820;48.738;9.092;2023-01-13T07:47:53;0.23;;;0.23;;
23302;SDS011;11820;48.738;9.092;2023-01-13T07:50:18;0.40;;;0.40;;
23302;SDS011;11820;48.738;9.092;2023-01-13T07:52:45;0.70;;;0.40;;
23302;SDS011;11820;48.738;9.092;2023-01-13T07:55:11;1.00;;;0.50;;
23302;SDS011;11820;48.738;9.092;2023-01-13T07:57:36;0.77;;;0.50;;
23302;SDS011;11820;48.738;9.092;2023-01-13T08:00:03;1.70;;;0.60;;
23302;SDS011;11820;48.738;9.092;2023-01-13T08:02:29;0.77;;;0.30;;
23302;SDS011;11820;48.738;9.092;2023-01-13T08:04:54;0.40;;;0.40;;
23302;SDS011;11820;48.738;9.092;2023-01-13T08:07:19;1.07;;;0.43;;
23302;SDS011;11820;48.738;9.092;2023-01-13T08:09:45;0.93;;;0.30;;
23302;SDS011;11820;48.738;9.092;2023-01-13T08:12:10;0.67;;;0.30;;
23302;SDS011;11820;48.738;9.092;2023-01-13T08:14:54;0.83;;;0.40;;
23302;SDS011;11820;48.738;9.092;2023-01-13T08:17:19;0.43;;;0.33;;
23302;SDS011;11820;48.738;9.092;2023-01-13T08:19:45;1.67;;;0.40;;
23302;SDS011;11820;48.738;9.092;2023-01-13T08:22:10;0.70;;;0.27;;
23302;SDS011;11820;48.738;9.092;2023-01-13T08:24:35;0.40;;;0.40;;
23302;SDS011;11820;48.738;9.092;2023-01-13T08:27:01;0.47;;;0.40;;
23302;SDS011;11820;48.738;9.092;2023-01-13T08:29:26;2.07;;;0.60;;
23302;SDS011;11820;48.738;9.092;2023-01-13T08:31:51;0.30;;;0.30;;
23302;SDS011;11820;48.738;9.092;2023-01-13T08:34:17;0.40;;;0.40;;
23302;SDS011;11820;48.738;9.092;2023-01-13T08:36:43;0.77;;;0.47;;
23302;SDS011;11820;48.738;9.092;2023-01-13T08:39:08;0.47;;;0.30;;
23302;SDS011;11820;48.738;9.092;2023-01-13T08:41:33;0.40;;;0.40;;
23302;SDS011;11820;48.738;9.092;2023-01-13T08:44:17;1.30;;;0.50;;
23302;SDS011;11820;48.738;9.092;2023-01-13T08:46:42;1.63;;;0.70;;
23302;SDS011;11820;48.738;9.092;2023-01-13T08:49:08;1.33;;;0.60;;
23302;SDS011;11820;48.738;9.092;2023-01-13T08:51:33;0.67;;;0.60;;
23302;SDS011;11820;48.738;9.092;2023-01-13T08:53:58;0.70;;;0.50;;
23302;SDS011;11820;48.738;9.092;2023-01-13T08:56:24;1.23;;;0.50;;
23302;SDS011;11820;48.738;9.092;2023-01-13T08:58:49;0.90;;;0.40;;
23302;SDS011;11820;48.738;9.092;2023-01-13T09:01:17;0.50;;;0.43;;
23302;SDS011;11820;48.738;9.092;2023-01-13T09:03:45;2.03;;;0.60;;
23302;SDS011;11820;48.738;9.092;2023-01-13T09:06:10;0.60;;;0.40;;
23302;SDS011;11820;48.738;9.092;2023-01-13T09:08:36;0.87;;;0.60;;
23302;SDS011;11820;48.738;9.092;2023-01-13T09:11:01;1.27;;;0.60;;
23302;SDS011;11820;48.738;9.092;2023-01-13T09:13:47;0.40;;;0.40;;
23302;SDS011;11820;48.738;9.092;2023-01-13T09:16:12;1.27;;;0.40;;
23302;SDS011;11820;48.738;9.092;2023-01-13T09:18:37;0.70;;;0.33;;
23302;SDS011;11820;48.738;9.092;2023-01-13T09:21:03;0.60;;;0.40;;
23302;SDS011;11820;48.738;9.092;2023-01-13T09:23:28;0.87;;;0.40;;
23302;SDS011;11820;48.738;9.092;2023-01-13T09:25:54;1.53;;;0.40;;
23302;SDS011;11820;48.738;9.092;2023-01-13T09:28:19;1.30;;;0.40;;
23302;SDS011;11820;48.738;9.092;2023-01-13T09:30:44;0.83;;;0.50;;
23302;SDS011;11820;48.738;9.092;2023-01-13T09:33:10;1.27;;;0.50;;
23302;SDS011;11820;48.738;9.092;2023-01-13T09:35:56;0.30;;;0.30;;
23302;SDS011;11820;48.738;9.092;2023-01-13T09:38:23;1.13;;;0.40;;
23302;SDS011;11820;48.738;9.092;2023-01-13T09:40:48;0.60;;;0.30;;
23302;SDS011;11820;48.738;9.092;2023-01-13T09:43:16;1.10;;;0.50;;
23302;SDS011;11820;48.738;9.092;2023-01-13T09:46:17;0.30;;;0.30;;
23302;SDS011;11820;48.738;9.092;2023-01-13T09:49:06;0.80;;;0.40;;
23302;SDS011;11820;48.738;9.092;2023-01-13T09:51:41;0.97;;;0.40;;
23302;SDS011;11820;48.738;9.092;2023-01-13T09:56:50;1.10;;;0.70;;
23302;SDS011;11820;48.738;9.092;2023-01-13T09:59:17;1.57;;;0.30;;
23302;SDS011;11820;48.738;9.092;2023-01-13T10:01:45;1.63;;;0.50;;
23302;SDS011;11820;48.738;9.092;2023-01-13T10:04:42;0.30;;;0.30;;
23302;SDS011;11820;48.738;9.092;2023-01-13T10:07:10;1.23;;;0.50;;
23302;SDS011;11820;48.738;9.092;2023-01-13T10:12:18;0.77;;;0.50;;
23302;SDS011;11820;48.738;9.092;2023-01-13T10:15:05;0.70;;;0.60;;
23302;SDS011;11820;48.738;9.092;2023-01-13T10:17:40;2.30;;;0.50;;
23302;SDS011;11820;48.738;9.092;2023-01-13T10:25:23;0.47;;;0.30;;
23302;SDS011;11820;48.738;9.092;2023-01-13T10:28:01;2.00;;;0.50;;
23302;SDS011;11820;48.738;9.092;2023-01-13T10:30:37;0.30;;;0.30;;
23302;SDS011;11820;48.738;9.092;2023-01-13T10:33:18;0.70;;;0.40;;
23302;SDS011;11820;48.738;9.092;2023-01-13T10:38:23;1.13;;;0.77;;
23302;SDS011;11820;48.738;9.092;2023-01-13T10:40:52;1.57;;;0.43;;
23302;SDS011;11820;48.738;9.092;2023-01-13T10:43:19;1.47;;;0.60;;
23302;SDS011;11820;48.738;9.092;2023-01-13T10:45:56;2.47;;;0.60;;
23302;SDS011;11820;48.738;9.092;2023-01-13T10:48:34;0.90;;;0.50;;
23302;SDS011;11820;48.738;9.092;2023-01-13T10:56:39;0.37;;;0.37;;
23302;SDS011;11820;48.738;9.092;2023-01-13T11:01:55;0.50;;;0.27;;
23302;SDS011;11820;48.738;9.092;2023-01-13T11:04:36;1.43;;;0.37;;
23302;SDS011;11820;48.738;9.092;2023-01-13T11:07:04;0.80;;;0.40;;
23302;SDS011;11820;48.738;9.092;2023-01-13T11:09:43;1.70;;;0.40;;
23302;SDS011;11820;48.738;9.092;2023-01-13T11:12:31;0.80;;;0.40;;
23302;SDS011;11820;48.738;9.092;2023-01-13T11:15:01;1.07;;;0.47;;
23302;SDS011;11820;48.738;9.092;2023-01-13T11:17:31;1.37;;;0.50;;
23302;SDS011;11820;48.738;9.092;2023-01-13T11:20:14;1.43;;;0.60;;
23302;SDS011;11820;48.738;9.092;2023-01-13T11:22:46;3.13;;;0.70;;
23302;SDS011;11820;48.738;9.092;2023-01-13T11:27:54;2.30;;;0.30;;
23302;SDS011;11820;48.738;9.092;2023-01-13T11:30:38;0.77;;;0.43;;
23302;SDS011;11820;48.738;9.092;2023-01-13T11:35:55;1.30;;;0.40;;
23302;SDS011;11820;48.738;9.092;2023-01-13T11:38:54;2.50;;;0.70;;
23302;SDS011;11820;48.738;9.092;2023-01-13T11:46:31;1.93;;;0.60;;
23302;SDS011;11820;48.738;9.092;2023-01-13T11:48:57;0.90;;;0.50;;
23302;SDS011;11820;48.738;9.092;2023-01-13T11:51:30;0.50;;;0.50;;
23302;SDS011;11820;48.738;9.092;2023-01-13T12:07:21;1.03;;;0.40;;
23302;SDS011;11820;48.738;9.092;2023-01-13T12:23:42;2.93;;;0.70;;
23302;SDS011;11820;48.738;9.092;2023-01-13T12:26:25;0.90;;;0.53;;
23302;SDS011;11820;48.738;9.092;2023-01-13T12:28:57;1.60;;;0.50;;
23302;SDS011;11820;48.738;9.092;2023-01-13T12:31:28;3.30;;;0.87;;
23302;SDS011;11820;48.738;9.092;2023-01-13T12:41:29;1.67;;;0.70;;
23302;SDS011;11820;48.738;9.092;2023-01-13T12:44:24;2.00;;;0.80;;
23302;SDS011;11820;48.738;9.092;2023-01-13T12:46:50;3.10;;;0.97;;
23302;SDS011;11820;48.738;9.092;2023-01-13T12:49:29;5.60;;;1.10;;
23302;SDS011;11820;48.738;9.092;2023-01-13T12:57:21;5.37;;;1.00;;
23302;SDS011;11820;48.738;9.092;2023-01-13T13:00:11;4.83;;;1.10;;
23302;SDS011;11820;48.738;9.092;2023-01-13T13:02:40;3.97;;;1.30;;
23302;SDS011;11820;48.738;9.092;2023-01-13T13:05:28;3.33;;;1.07;;
23302;SDS011;11820;48.738;9.092;2023-01-13T13:08:14;6.47;;;1.70;;
23302;SDS011;11820;48.738;9.092;2023-01-13T13:11:33;3.73;;;1.17;;
23302;SDS011;11820;48.738;9.092;2023-01-13T13:14:11;7.93;;;1.33;;
23302;SDS011;11820;48.738;9.092;2023-01-13T13:16:50;3.10;;;0.97;;
23302;SDS011;11820;48.738;9.092;2023-01-13T13:24:38;4.13;;;1.53;;
23302;SDS011;11820;48.738;9.092;2023-01-13T13:28:06;3.93;;;1.30;;
23302;SDS011;11820;48.738;9.092;2023-01-13T13:30:07;2.60;;;1.30;;
23302;SDS011;11820;48.738;9.092;2023-01-13T13:35:30;6.37;;;1.30;;
23302;SDS011;11820;48.738;9.092;2023-01-13T13:41:17;1.83;;;0.70;;
23302;SDS011;11820;48.738;9.092;2023-01-13T13:44:38;4.00;;;0.93;;
23302;SDS011;11820;48.738;9.092;2023-01-13T13:47:37;1.83;;;0.77;;
23302;SDS011;11820;48.738;9.092;2023-01-13T13:50:07;2.37;;;0.80;;
23302;SDS011;11820;48.738;9.092;2023-01-13T13:52:42;3.20;;;0.83;;
23302;SDS011;11820;48.738;9.092;2023-01-13T13:55:22;3.40;;;1.03;;
23302;SDS011;11820;48.738;9.092;2023-01-13T13:57:51;3.37;;;0.90;;
23302;SDS011;11820;48.738;9.092;2023-01-13T14:02:54;3.53;;;1.03;;
23302;SDS011;11820;48.738;9.092;2023-01-13T14:07:56;4.13;;;1.47;;
23302;SDS011;11820;48.738;9.092;2023-01-13T14:10:31;4.27;;;1.30;;
23302;SDS011;11820;48.738;9.092;2023-01-13T14:12:59;1.73;;;1.00;;
23302;SDS011;11820;48.738;9.092;2023-01-13T14:15:43;1.60;;;0.67;;
23302;SDS011;11820;48.738;9.092;2023-01-13T14:18:11;3.23;;;0.90;;
23302;SDS011;11820;48.738;9.092;2023-01-13T14:20:39;0.77;;;0.50;;
23302;SDS011;11820;48.738;9.092;2023-01-13T14:23:05;4.57;;;0.83;;
23302;SDS011;11820;48.738;9.092;2023-01-13T14:27:56;1.60;;;0.60;;
23302;SDS011;11820;48.738;9.092;2023-01-13T14:30:25;1.70;;;0.80;;
23302;SDS011;11820;48.738;9.092;2023-01-13T14:32:52;2.87;;;0.60;;
23302;SDS011;11820;48.738;9.092;2023-01-13T14:35:18;1.87;;;0.77;;
23302;SDS011;11820;48.738;9.092;2023-01-13T14:37:45;1.00;;;0.70;;
23302;SDS011;11820;48.738;9.092;2023-01-13T14:42:59;1.10;;;0.63;;
23302;SDS011;11820;48.738;9.092;2023-01-13T14:45:34;0.73;;;0.67;;
23302;SDS011;11820;48.738;9.092;2023-01-13T14:48:00;0.83;;;0.70;;
23302;SDS011;11820;48.738;9.092;2023-01-13T14:50:26;1.57;;;0.70;;
23302;SDS011;11820;48.738;9.092;2023-01-13T14:52:57;4.60;;;1.13;;
23302;SDS011;11820;48.738;9.092;2023-01-13T14:55:28;1.47;;;0.87;;
23302;SDS011;11820;48.738;9.092;2023-01-13T15:03:52;2.60;;;0.80;;
23302;SDS011;11820;48.738;9.092;2023-01-13T15:06:21;2.20;;;0.97;;
23302;SDS011;11820;48.738;9.092;2023-01-13T15:08:48;2.93;;;0.90;;
23302;SDS011;11820;48.738;9.092;2023-01-13T15:11:19;2.50;;;0.77;;
23302;SDS011;11820;48.738;9.092;2023-01-13T15:13:50;2.63;;;0.90;;
23302;SDS011;11820;48.738;9.092;2023-01-13T15:16:23;3.27;;;0.80;;
23302;SDS011;11820;48.738;9.092;2023-01-13T15:18:50;4.27;;;1.63;;
23302;SDS011;11820;48.738;9.092;2023-01-13T15:21:16;1.23;;;0.83;;
23302;SDS011;11820;48.738;9.092;2023-01-13T15:23:42;3.27;;;0.80;;
23302;SDS011;11820;48.738;9.092;2023-01-13T15:28:48;2.37;;;0.93;;
23302;SDS011;11820;48.738;9.092;2023-01-13T15:31:15;3.27;;;1.20;;
23302;SDS011;11820;48.738;9.092;2023-01-13T15:33:41;1.90;;;0.87;;
23302;SDS011;11820;48.738;9.092;2023-01-13T15:36:26;2.50;;;0.80;;
23302;SDS011;11820;48.738;9.092;2023-01-13T15:38:54;0.83;;;0.50;;
23302;SDS011;11820;48.738;9.092;2023-01-13T15:41:20;2.47;;;0.63;;
23302;SDS011;11820;48.738;9.092;2023-01-13T15:44:05;2.83;;;0.77;;
23302;SDS011;11820;48.738;9.092;2023-01-13T15:46:49;2.80;;;0.97;;
23302;SDS011;11820;48.738;9.092;2023-01-13T15:51:59;2.45;;;0.85;;
23302;SDS011;11820;48.738;9.092;2023-01-13T15:54:29;3.37;;;1.33;;
23302;SDS011;11820;48.738;9.092;2023-01-13T15:56:54;2.03;;;0.70;;
23302;SDS011;11820;48.738;9.092;2023-01-13T15:59:21;3.07;;;0.80;;
23302;SDS011;11820;48.738;9.092;2023-01-13T16:01:50;2.37;;;0.90;;
23302;SDS011;11820;48.738;9.092;2023-01-13T16:04:15;4.97;;;1.27;;
23302;SDS011;11820;48.738;9.092;2023-01-13T16:06:41;3.10;;;1.10;;
23302;SDS011;11820;48.738;9.092;2023-01-13T16:09:06;2.37;;;0.80;;
23302;SDS011;11820;48.738;9.092;2023-01-13T16:11:32;2.27;;;1.23;;
23302;SDS011;11820;48.738;9.092;2023-01-13T16:13:57;1.83;;;1.00;;
23302;SDS011;11820;48.738;9.092;2023-01-13T16:16:24;4.33;;;1.30;;
23302;SDS011;11820;48.738;9.092;2023-01-13T16:18:51;3.37;;;0.97;;
23302;SDS011;11820;48.738;9.092;2023-01-13T16:21:17;3.03;;;0.90;;
23302;SDS011;11820;48.738;9.092;2023-01-13T16:23:44;4.40;;;1.03;;
23302;SDS011;11820;48.738;9.092;2023-01-13T16:26:21;4.70;;;1.10;;
23302;SDS011;11820;48.738;9.092;2023-01-13T16:28:51;8.30;;;1.80;;
23302;SDS011;11820;48.738;9.092;2023-01-13T16:31:22;2.43;;;1.03;;
23302;SDS011;11820;48.738;9.092;2023-01-13T16:33:56;4.47;;;1.10;;
23302;SDS011;11820;48.738;9.092;2023-01-13T16:36:23;5.27;;;1.27;;
23302;SDS011;11820;48.738;9.092;2023-01-13T16:38:49;4.73;;;1.27;;
23302;SDS011;11820;48.738;9.092;2023-01-13T16:41:16;6.40;;;1.60;;
23302;SDS011;11820;48.738;9.092;2023-01-13T16:43:43;5.23;;;1.47;;
23302;SDS011;11820;48.738;9.092;2023-01-13T16:46:22;3.67;;;1.30;;
23302;SDS011;11820;48.738;9.092;2023-01-13T16:48:51;2.17;;;1.00;;
23302;SDS011;11820;48.738;9.092;2023-01-13T16:51:17;5.67;;;1.40;;
23302;SDS011;11820;48.738;9.092;2023-01-13T16:53:43;7.00;;;1.20;;
23302;SDS011;11820;48.738;9.092;2023-01-13T16:56:12;5.63;;;1.30;;
23302;SDS011;11820;48.738;9.092;2023-01-13T16:58:43;3.60;;;1.20;;
23302;SDS011;11820;48.738;9.092;2023-01-13T17:01:22;7.50;;;1.40;;
23302;SDS011;11820;48.738;9.092;2023-01-13T17:03:49;3.73;;;1.30;;
23302;SDS011;11820;48.738;9.092;2023-01-13T17:06:16;3.00;;;1.30;;
23302;SDS011;11820;48.738;9.092;2023-01-13T17:08:44;3.93;;;1.70;;
23302;SDS011;11820;48.738;9.092;2023-01-13T17:11:09;3.47;;;1.43;;
23302;SDS011;11820;48.738;9.092;2023-01-13T17:13:34;5.23;;;1.83;;
23302;SDS011;11820;48.738;9.092;2023-01-13T17:16:00;4.50;;;1.53;;
23302;SDS011;11820;48.738;9.092;2023-01-13T17:18:25;4.17;;;2.07;;
23302;SDS011;11820;48.738;9.092;2023-01-13T17:20:50;7.40;;;1.53;;
23302;SDS011;11820;48.738;9.092;2023-01-13T17:23:16;5.27;;;1.37;;
23302;SDS011;11820;48.738;9.092;2023-01-13T17:25:41;9.07;;;1.77;;
23302;SDS011;11820;48.738;9.092;2023-01-13T17:28:06;5.07;;;1.50;;
23302;SDS011;11820;48.738;9.092;2023-01-13T17:30:33;4.90;;;1.40;;
23302;SDS011;11820;48.738;9.092;2023-01-13T17:32:58;6.23;;;1.50;;
23302;SDS011;11820;48.738;9.092;2023-01-13T17:35:23;5.73;;;1.63;;